Latest Weather Observations for Frankston

IDV60901

Issued at 8:51 am EST Wednesday 18 September 2019 (issued every 10 minutes, with the page automatically refreshed every 10 minutes)

About weather observations | Map of Melbourne area stations | Latest observations for Melbourne area | Other Formats
Station Details ID: 086371 Name: FRANKSTON AWS Lat: -38.15 Lon: 145.12 Height: 6.0 m
Data from the previous 72 hours. | See also: Recent months at Frankston
Date/Time
EST
Temp
°C
App
Temp
°C
Dew
Point
°C
Rel
Hum
%
Delta-T
°C
Wind Press
QNH
hPa
Press
MSL
hPa
Rain since
9am
mm
Dir  Spd
km/h
Gust
km/h
Spd
kts
Gust
kts
18/08:30am - - - - - N 13 15 7 8 - - -
18/08:00am - - - - - NNE 9 11 5 6 - - -
18/07:30am - - - - - NE 7 11 4 6 - - -
18/07:00am - - - - - ENE 7 11 4 6 - - -
18/06:30am - - - - - E 9 11 5 6 - - -
18/06:00am - - - - - E 7 11 4 6 - - -
18/05:30am - - - - - E 7 11 4 6 - - -
18/05:00am - - - - - E 9 13 5 7 - - -
18/04:30am - - - - - ESE 11 15 6 8 - - -
18/04:00am - - - - - E 7 13 4 7 - - -
18/03:30am - - - - - ESE 11 15 6 8 - - -
18/03:00am - - - - - E 9 13 5 7 - - -
18/02:30am - - - - - E 6 9 3 5 - - -
18/02:00am - - - - - ENE 7 7 4 4 - - -
18/01:30am - - - - - E 7 11 4 6 - - -
18/01:00am - - - - - ESE 9 11 5 6 - - -
18/12:30am - - - - - SE 9 13 5 7 - - -
18/12:00am - - - - - SSE 11 15 6 8 - - -
 
Date/Time
EST
Temp
°C
App
Temp
°C
Dew
Point
°C
Rel
Hum
%
Delta-T
°C
Wind Press
QNH
hPa
Press
MSL
hPa
Rain since
9am
mm
Dir  Spd
km/h
Gust
km/h
Spd
kts
Gust
kts
17/11:30pm - - - - - SSE 11 17 6 9 - - -
17/11:00pm - - - - - SSE 11 17 6 9 - - -
17/10:30pm - - - - - SSE 11 19 6 10 - - -
17/10:00pm - - - - - SSE 13 20 7 11 - - -
17/09:30pm - - - - - S 11 19 6 10 - - -
17/09:00pm - - - - - SSE 11 19 6 10 - - -
17/08:30pm - - - - - S 11 19 6 10 - - -
17/08:00pm - - - - - SSE 13 24 7 13 - - -
17/07:30pm - - - - - S 13 20 7 11 - - -
17/07:00pm - - - - - S 13 19 7 10 - - -
17/06:30pm - - - - - S 13 19 7 10 - - -
17/06:00pm - - - - - S 15 24 8 13 - - -
17/05:30pm - - - - - SSE 15 28 8 15 - - -
17/05:00pm - - - - - S 17 30 9 16 - - -
17/04:30pm - - - - - SSE 17 26 9 14 - - -
17/04:00pm - - - - - S 13 22 7 12 - - -
17/03:30pm - - - - - S 13 26 7 14 - - -
17/03:00pm - - - - - SE 13 20 7 11 - - -
17/02:30pm - - - - - SSE 15 28 8 15 - - -
17/02:00pm - - - - - SSE 13 26 7 14 - - -
17/01:30pm - - - - - SSE 11 19 6 10 - - -
17/01:00pm - - - - - SSE 13 26 7 14 - - -
17/12:30pm - - - - - SSE 17 28 9 15 - - -
17/12:00pm - - - - - SSE 15 26 8 14 - - -
17/11:30am - - - - - S 13 26 7 14 - - -
17/11:00am - - - - - SSE 11 20 6 11 - - -
17/10:30am - - - - - SE 13 24 7 13 - - -
17/10:00am - - - - - SSE 13 24 7 13 - - -
17/09:30am - - - - - SSE 13 20 7 11 - - -
17/09:00am - - - - - SE 11 17 6 9 - - -
17/08:30am - - - - - SSE 11 19 6 10 - - -
17/08:00am - - - - - CALM 0 6 0 3 - - -
17/07:30am - - - - - CALM 0 2 0 1 - - -
17/07:00am - - - - - ESE 7 11 4 6 - - -
17/06:30am - - - - - SSE 9 11 5 6 - - -
17/06:00am - - - - - SSE 9 9 5 5 - - -
17/05:30am - - - - - SE 9 11 5 6 - - -
17/05:00am - - - - - S 9 9 5 5 - - -
17/04:30am - - - - - SSE 9 11 5 6 - - -
17/04:00am - - - - - S 9 11 5 6 - - -
17/03:30am - - - - - S 7 9 4 5 - - -
17/03:00am - - - - - S 7 11 4 6 - - -
17/02:30am - - - - - S 7 11 4 6 - - -
17/02:00am - - - - - S 9 11 5 6 - - -
17/01:30am - - - - - S 7 9 4 5 - - -
17/01:00am - - - - - SSW 9 11 5 6 - - -
17/12:30am - - - - - S 7 11 4 6 - - -
17/12:00am - - - - - S 9 13 5 7 - - -
 
Date/Time
EST
Temp
°C
App
Temp
°C
Dew
Point
°C
Rel
Hum
%
Delta-T
°C
Wind Press
QNH
hPa
Press
MSL
hPa
Rain since
9am
mm
Dir  Spd
km/h
Gust
km/h
Spd
kts
Gust
kts
16/11:30pm - - - - - S 13 20 7 11 - - -
16/11:00pm - - - - - S 7 13 4 7 - - -
16/10:30pm - - - - - S 7 11 4 6 - - -
16/10:00pm - - - - - S 7 7 4 4 - - -
16/09:30pm - - - - - SW 9 13 5 7 - - -
16/09:00pm - - - - - SW 11 15 6 8 - - -
16/08:30pm - - - - - SSW 9 11 5 6 - - -
16/08:00pm - - - - - SSW 7 11 4 6 - - -
16/07:30pm - - - - - SSW 7 11 4 6 - - -
16/07:00pm - - - - - SSW 9 13 5 7 - - -
16/06:30pm - - - - - SSW 15 24 8 13 - - -
16/06:00pm - - - - - SSW 17 30 9 16 - - -
16/05:30pm - - - - - SSW 15 24 8 13 - - -
16/05:00pm - - - - - SSW 19 30 10 16 - - -
16/04:30pm - - - - - SW 22 37 12 20 - - -
16/04:00pm - - - - - SW 19 28 10 15 - - -
16/03:30pm - - - - - SW 19 32 10 17 - - -
16/03:00pm - - - - - SW 20 30 11 16 - - -
16/02:30pm - - - - - SW 19 30 10 16 - - -
16/02:00pm - - - - - SSW 24 52 13 28 - - -
16/01:30pm - - - - - SW 20 35 11 19 - - -
16/01:00pm - - - - - SSW 20 32 11 17 - - -
16/12:30pm - - - - - SW 19 30 10 16 - - -
16/12:00pm - - - - - SW 26 39 14 21 - - -
16/11:30am - - - - - WSW 30 41 16 22 - - -
16/11:00am - - - - - SW 24 35 13 19 - - -
16/10:30am - - - - - SW 20 32 11 17 - - -
16/10:00am - - - - - SW 17 26 9 14 - - -
16/09:30am - - - - - SW 13 19 7 10 - - -
16/09:00am - - - - - SSW 13 22 7 12 - - -
16/08:30am - - - - - SW 15 26 8 14 - - -
16/08:00am - - - - - SW 15 20 8 11 - - -
16/07:30am - - - - - SSW 11 15 6 8 - - -
16/07:00am - - - - - SW 13 17 7 9 - - -
16/06:30am - - - - - SW 13 19 7 10 - - -
16/06:00am - - - - - W 28 41 15 22 - - -
16/05:30am - - - - - WSW 26 32 14 17 - - -
16/05:00am - - - - - W 20 28 11 15 - - -
16/04:30am - - - - - W 28 35 15 19 - - -
16/04:00am - - - - - WNW 30 33 16 18 - - -
16/03:30am - - - - - WNW 24 32 13 17 - - -
16/03:00am - - - - - W 24 28 13 15 - - -
16/02:30am - - - - - WNW 28 33 15 18 - - -
16/02:00am - - - - - WNW 28 30 15 16 - - -
16/01:30am - - - - - W 30 35 16 19 - - -
16/01:00am - - - - - WSW 30 39 16 21 - - -
16/12:30am - - - - - SW 24 32 13 17 - - -
16/12:00am - - - - - WSW 20 28 11 15 - - -
 
Date/Time
EST
Temp
°C
App
Temp
°C
Dew
Point
°C
Rel
Hum
%
Delta-T
°C
Wind Press
QNH
hPa
Press
MSL
hPa
Rain since
9am
mm
Dir  Spd
km/h
Gust
km/h
Spd
kts
Gust
kts
15/11:30pm - - - - - SW 20 32 11 17 - - -
15/11:04pm - - - - - WNW 19 39 10 21 - - -
15/11:00pm - - - - - NW 17 19 9 10 - - -
15/10:30pm - - - - - NNW 20 26 11 14 - - -
15/10:00pm - - - - - NNW 26 33 14 18 - - -
15/09:30pm - - - - - N 19 32 10 17 - - -
15/09:00pm - - - - - N 20 26 11 14 - - -
15/08:30pm - - - - - N 19 24 10 13 - - -
15/08:00pm - - - - - N 28 32 15 17 - - -
15/07:30pm - - - - - N 20 26 11 14 - - -
15/07:00pm - - - - - NW 26 33 14 18 - - -
15/06:30pm - - - - - N 22 26 12 14 - - -
15/06:00pm - - - - - N 13 19 7 10 - - -
15/05:30pm - - - - - NNE 19 24 10 13 - - -
15/05:00pm - - - - - ENE 11 19 6 10 - - -
15/04:30pm - - - - - NW 15 17 8 9 - - -
15/04:00pm - - - - - NW 32 37 17 20 - - -
15/03:30pm - - - - - N 26 30 14 16 - - -
15/03:00pm - - - - - N 28 32 15 17 - - -
15/02:30pm - - - - - N 28 32 15 17 - - -
15/02:00pm - - - - - N 28 33 15 18 - - -
15/01:30pm - - - - - N 22 30 12 16 - - -
15/01:00pm - - - - - N 26 32 14 17 - - -
15/12:30pm - - - - - NNW 32 37 17 20 - - -
15/12:00pm - - - - - NNW 19 22 10 12 - - -
15/11:30am - - - - - N 19 26 10 14 - - -
15/11:00am - - - - - NNW 22 30 12 16 - - -
15/10:30am - - - - - N 28 35 15 19 - - -
15/10:00am - - - - - N 28 35 15 19 - - -
15/09:30am - - - - - N 24 33 13 18 - - -
15/09:00am - - - - - N 32 39 17 21 - - -

Latest Capital City Observations: Canberra | Sydney | Melbourne | Brisbane | Adelaide | Perth | Hobart | Darwin

Other formats

Comma delimited format used in spreadsheet applications
http://www.bom.gov.au/fwo/IDV60901/IDV60901.94871.axf

JavaScript Object Notation format (JSON) in row-major order
http://www.bom.gov.au/fwo/IDV60901/IDV60901.94871.json

Data quality

Most of these data are generated automatically and are frequently updated. Quality checks on data are not normally performed. It is possible for incorrect values to appear. Refer to information at About Latest Weather Observations and please check the disclaimer before using these data.